Search for airport 
image banner adimage banner adimage banner ad
image banner ad

6IA4 - Broadlawns Medical Center

Located in Des Moines, United States

ICAO - 6IA4, IATA -

Data provided by Airmate  

General information

Coordinates: N41°37'0" W93°38'26"
Elevation is 877 feet MSL.
Magnetic variation is 04° East
View others Airports in Iowa

Operational data

Special qualification required
Current time UTC:
Current local time:
Weather at : KDSM - Des Moines Intl ( 9 km )
METAR: KDSM 181654Z 11008KT 10SM FEW050 SCT170 BKN250 30/17 A2983 RMK AO2 SLP090 VIRGA ACC ALQDS T03000172
TAF: KDSM 181417Z 1814/1912 03015G25KT P6SM VCSH SCT080 BKN150 FM181600 13006KT P6SM BKN250 FM190100 VRB04KT P6SM VCSH SCT060 BKN150 FM190600 32007KT P6SM BKN250
View NOTAMs / SUP AIP / TFR affecting this airport [VIEW]
Communications frequencies: [VIEW]

Runways:

Airport contact information

Address: Des Moines United States

Satellite view of 6IA4